createdAt,value
2018-06-30T00:00:43.978Z,38.43
2018-06-30T00:01:43.992Z,39.29
2018-06-30T00:02:44.009Z,38.91
2018-06-30T00:03:44.150Z,39.58
2018-06-30T00:04:44.043Z,38.53
2018-06-30T00:05:44.057Z,38.14
2018-06-30T00:06:44.084Z,38.24
2018-06-30T00:07:44.105Z,38.53
2018-06-30T00:08:44.247Z,38.43
2018-06-30T00:09:44.107Z,39.39
2018-06-30T00:10:44.137Z,39.20
2018-06-30T00:11:44.170Z,39.29
2018-06-30T00:12:44.157Z,38.43
2018-06-30T00:13:44.341Z,38.91
2018-06-30T00:14:44.187Z,38.62
2018-06-30T00:15:44.209Z,39.29
2018-06-30T00:16:44.215Z,39.76
2018-06-30T00:17:44.226Z,39.37
2018-06-30T00:18:44.340Z,39.95
2018-06-30T00:19:44.266Z,39.76
2018-06-30T00:20:44.266Z,40.14
2018-06-30T00:21:44.285Z,40.91
2018-06-30T00:22:44.300Z,40.62
2018-06-30T00:23:44.408Z,40.91
2018-06-30T00:24:44.347Z,41.10
2018-06-30T00:25:44.365Z,41.49
2018-06-30T00:26:44.363Z,41.10
2018-06-30T00:27:44.391Z,41.00
2018-06-30T00:28:44.513Z,40.62
2018-06-30T00:29:44.423Z,40.23
2018-06-30T00:30:44.407Z,40.72
2018-06-30T00:31:44.424Z,41.00
2018-06-30T00:32:44.464Z,41.49
2018-06-30T00:33:44.622Z,41.10
2018-06-30T00:34:44.462Z,41.10
2018-06-30T00:35:44.504Z,41.20
2018-06-30T00:36:44.495Z,41.29
2018-06-30T00:37:44.504Z,41.39
2018-06-30T00:38:44.677Z,41.39
2018-06-30T00:39:44.537Z,41.10
2018-06-30T00:40:44.579Z,41.00
2018-06-30T00:41:44.565Z,41.49
2018-06-30T00:42:44.577Z,41.58
2018-06-30T00:43:44.592Z,41.75
2018-06-30T00:44:44.711Z,42.13
2018-06-30T00:45:44.619Z,42.13
2018-06-30T00:46:44.668Z,42.04
2018-06-30T00:47:44.649Z,42.43
2018-06-30T00:48:44.670Z,42.71
2018-06-30T00:49:44.848Z,42.90
2018-06-30T00:50:44.719Z,43.00
2018-06-30T00:51:44.732Z,43.19
2018-06-30T00:52:44.720Z,43.12
2018-06-30T00:53:44.747Z,42.71
2018-06-30T00:54:44.959Z,42.13
2018-06-30T00:55:44.792Z,42.23
2018-06-30T00:56:44.805Z,42.81
2018-06-30T00:57:44.794Z,43.29
2018-06-30T00:58:44.810Z,43.67
2018-06-30T00:59:44.910Z,43.19
2018-06-30T01:00:44.845Z,43.87
2018-06-30T01:01:44.847Z,43.29
2018-06-30T01:02:44.885Z,43.57
2018-06-30T01:03:44.897Z,43.77
2018-06-30T01:04:44.988Z,43.57
2018-06-30T01:05:44.902Z,43.48
2018-06-30T01:06:44.938Z,43.67
2018-06-30T01:07:44.926Z,43.77
2018-06-30T01:08:44.969Z,44.15
2018-06-30T01:09:45.114Z,43.87
2018-06-30T01:10:44.971Z,43.87
2018-06-30T01:11:45.025Z,44.15
2018-06-30T01:12:45.027Z,44.24
2018-06-30T01:13:45.023Z,44.63
2018-06-30T01:14:45.157Z,44.54
2018-06-30T01:15:45.065Z,44.34
2018-06-30T01:16:45.052Z,43.77
2018-06-30T01:17:45.092Z,43.77
2018-06-30T01:18:45.086Z,43.87
2018-06-30T01:19:45.209Z,43.96
2018-06-30T01:20:45.136Z,43.87
2018-06-30T01:21:45.123Z,43.96
2018-06-30T01:22:45.140Z,43.67
2018-06-30T01:23:45.152Z,43.48
2018-06-30T01:24:45.269Z,43.48
2018-06-30T01:25:45.201Z,43.77
2018-06-30T01:26:45.195Z,43.57
2018-06-30T01:27:45.215Z,43.31
2018-06-30T01:28:45.242Z,43.88
2018-06-30T01:29:45.339Z,43.88
2018-06-30T01:30:45.252Z,44.24
2018-06-30T01:31:45.270Z,43.96
2018-06-30T01:32:45.300Z,44.24
2018-06-30T01:33:45.314Z,44.34
2018-06-30T01:34:45.447Z,45.21
2018-06-30T01:35:45.314Z,44.73
2018-06-30T01:36:45.339Z,45.11
2018-06-30T01:37:45.339Z,44.54
2018-06-30T01:38:45.353Z,44.54
2018-06-30T01:39:45.495Z,44.54
2018-06-30T01:40:45.386Z,44.54
2018-06-30T01:41:45.407Z,44.92
2018-06-30T01:42:45.417Z,44.92
2018-06-30T01:43:45.441Z,45.30
2018-06-30T01:44:45.586Z,44.92
2018-06-30T01:45:45.480Z,44.82
2018-06-30T01:46:45.465Z,44.73
2018-06-30T01:47:45.510Z,44.82
2018-06-30T01:48:45.496Z,45.11
2018-06-30T01:49:45.617Z,45.59
2018-06-30T01:50:45.537Z,44.73
2018-06-30T01:51:45.535Z,45.11
2018-06-30T01:52:45.575Z,44.92
2018-06-30T01:53:45.591Z,44.82
2018-06-30T01:54:45.690Z,45.01
2018-06-30T01:55:45.591Z,45.21
2018-06-30T01:56:45.598Z,44.92
2018-06-30T01:57:45.632Z,45.50
2018-06-30T01:58:45.630Z,45.68
2018-06-30T01:59:45.671Z,46.26
2018-06-30T02:00:45.762Z,45.98
2018-06-30T02:01:45.680Z,45.88
2018-06-30T02:02:45.686Z,46.26
2018-06-30T02:03:45.702Z,45.88
2018-06-30T02:04:45.745Z,46.43
2018-06-30T02:05:45.824Z,46.72
2018-06-30T02:06:45.744Z,46.62
2018-06-30T02:07:45.769Z,46.62
2018-06-30T02:08:45.776Z,46.62
2018-06-30T02:09:45.781Z,46.24
2018-06-30T02:10:45.957Z,47.10
2018-06-30T02:11:45.816Z,47.01
2018-06-30T02:12:45.830Z,47.01
2018-06-30T02:13:45.861Z,47.30
2018-06-30T02:14:45.850Z,47.10
2018-06-30T02:15:46.047Z,46.81
2018-06-30T02:16:45.881Z,47.49
2018-06-30T02:17:45.896Z,47.30
2018-06-30T02:18:45.932Z,47.30
2018-06-30T02:19:45.929Z,47.49
2018-06-30T02:20:46.076Z,47.49
2018-06-30T02:21:45.946Z,47.87
2018-06-30T02:22:45.955Z,47.97
2018-06-30T02:23:45.981Z,47.49
2018-06-30T02:24:46.058Z,47.10
2018-06-30T02:25:46.177Z,46.72
2018-06-30T02:26:46.014Z,46.24
2018-06-30T02:27:46.029Z,46.24
2018-06-30T02:28:46.064Z,45.67
2018-06-30T02:29:46.085Z,45.28
2018-06-30T02:30:46.166Z,44.82
2018-06-30T02:31:46.105Z,45.11
2018-06-30T02:32:46.093Z,45.01
2018-06-30T02:33:46.134Z,44.92
2018-06-30T02:34:46.122Z,44.82
2018-06-30T02:35:46.259Z,44.82
2018-06-30T02:36:46.150Z,44.92
2018-06-30T02:37:46.164Z,44.82
2018-06-30T02:38:46.179Z,44.82
2018-06-30T02:39:46.220Z,44.92
2018-06-30T02:40:46.349Z,44.73
2018-06-30T02:41:46.216Z,44.82
2018-06-30T02:42:46.232Z,44.92
2018-06-30T02:43:46.270Z,44.82
2018-06-30T02:44:46.287Z,44.92
2018-06-30T02:45:46.376Z,45.50
2018-06-30T02:46:46.290Z,45.30
2018-06-30T02:47:46.302Z,45.50
2018-06-30T02:48:46.315Z,45.78
2018-06-30T02:49:46.329Z,45.78
2018-06-30T02:50:46.447Z,45.68
2018-06-30T02:51:46.353Z,45.88
2018-06-30T02:52:46.370Z,46.07
2018-06-30T02:53:46.403Z,46.26
2018-06-30T02:54:46.418Z,45.98
2018-06-30T02:55:46.558Z,45.88
2018-06-30T02:56:46.422Z,45.98
2018-06-30T02:57:46.435Z,46.26
2018-06-30T02:58:46.472Z,46.07
2018-06-30T02:59:46.485Z,46.26
2018-06-30T03:00:46.572Z,46.45
2018-06-30T03:01:46.512Z,46.17
2018-06-30T03:02:46.527Z,46.36
2018-06-30T03:03:46.538Z,47.22
2018-06-30T03:04:46.527Z,47.32
2018-06-30T03:05:46.639Z,47.30
2018-06-30T03:06:46.552Z,47.61
2018-06-30T03:07:46.594Z,47.51
2018-06-30T03:08:46.606Z,47.68
2018-06-30T03:09:46.621Z,47.68
2018-06-30T03:10:46.635Z,48.16
2018-06-30T03:11:46.734Z,48.54
2018-06-30T03:12:46.637Z,48.44
2018-06-30T03:13:46.673Z,48.25
2018-06-30T03:14:46.692Z,49.02
2018-06-30T03:15:46.674Z,48.74
2018-06-30T03:16:46.816Z,49.21
2018-06-30T03:17:46.700Z,50.08
2018-06-30T03:18:46.722Z,49.79
2018-06-30T03:19:46.730Z,49.98
2018-06-30T03:20:46.768Z,50.08
2018-06-30T03:21:46.852Z,50.37
2018-06-30T03:22:46.798Z,50.56
2018-06-30T03:23:46.791Z,50.17
2018-06-30T03:24:46.818Z,50.37
2018-06-30T03:25:46.806Z,51.14
2018-06-30T03:26:46.984Z,50.94
2018-06-30T03:27:46.860Z,50.94
2018-06-30T03:28:46.845Z,50.75
2018-06-30T03:29:46.874Z,50.94
2018-06-30T03:30:46.900Z,50.84
2018-06-30T03:31:47.197Z,50.75
2018-06-30T03:32:46.930Z,51.23
2018-06-30T03:33:46.928Z,50.75
2018-06-30T03:34:46.959Z,51.14
2018-06-30T03:35:46.968Z,51.14
2018-06-30T03:36:47.129Z,50.84
2018-06-30T03:37:46.971Z,50.94
2018-06-30T03:38:46.978Z,50.94
2018-06-30T03:39:47.020Z,50.75
2018-06-30T03:40:47.016Z,50.94
2018-06-30T03:41:47.167Z,50.94
2018-06-30T03:42:47.056Z,50.84
2018-06-30T03:43:47.070Z,50.94
2018-06-30T03:44:47.084Z,50.84
2018-06-30T03:45:47.095Z,51.23
2018-06-30T03:46:47.254Z,50.94
2018-06-30T03:47:47.098Z,50.84
2018-06-30T03:48:47.115Z,51.14
2018-06-30T03:49:47.140Z,51.14
2018-06-30T03:50:47.143Z,51.23
2018-06-30T03:51:47.308Z,51.32
2018-06-30T03:52:47.197Z,51.51
2018-06-30T03:53:47.200Z,51.32
2018-06-30T03:54:47.196Z,51.23
2018-06-30T03:55:47.198Z,51.32
2018-06-30T03:56:47.392Z,51.42
2018-06-30T03:57:47.227Z,51.61
2018-06-30T03:58:47.248Z,51.51
2018-06-30T03:59:47.283Z,51.51
2018-06-30T04:00:47.301Z,51.32
2018-06-30T04:01:47.461Z,51.68
2018-06-30T04:02:47.292Z,51.32
2018-06-30T04:03:47.324Z,51.42
2018-06-30T04:04:47.320Z,51.30
2018-06-30T04:05:47.359Z,51.78
2018-06-30T04:06:47.499Z,52.26
2018-06-30T04:07:47.368Z,52.26
2018-06-30T04:08:47.374Z,52.16
2018-06-30T04:09:47.385Z,52.26
2018-06-30T04:10:47.401Z,51.87
2018-06-30T04:11:47.566Z,52.26
2018-06-30T04:12:47.433Z,51.78
2018-06-30T04:13:47.450Z,51.87
2018-06-30T04:14:47.476Z,51.78
2018-06-30T04:15:47.492Z,52.16
2018-06-30T04:16:47.630Z,52.16
2018-06-30T04:17:47.497Z,52.55
2018-06-30T04:18:47.528Z,52.16
2018-06-30T04:19:47.523Z,52.16
2018-06-30T04:20:47.540Z,52.36
2018-06-30T04:21:47.549Z,52.16
2018-06-30T04:22:47.710Z,52.55
2018-06-30T04:23:47.580Z,52.55
2018-06-30T04:24:47.583Z,52.36
2018-06-30T04:25:47.631Z,52.64
2018-06-30T04:26:47.609Z,52.83
2018-06-30T04:27:47.800Z,52.71
2018-06-30T04:28:47.658Z,53.09
2018-06-30T04:29:47.664Z,53.00
2018-06-30T04:30:47.687Z,53.00
2018-06-30T04:31:47.687Z,53.67
2018-06-30T04:32:47.860Z,53.96
2018-06-30T04:33:47.729Z,54.15
2018-06-30T04:34:47.709Z,54.34
2018-06-30T04:35:47.753Z,54.15
2018-06-30T04:36:47.739Z,53.96
2018-06-30T04:37:47.872Z,54.15
2018-06-30T04:38:47.771Z,53.96
2018-06-30T04:39:47.772Z,54.44
2018-06-30T04:40:47.815Z,54.53
2018-06-30T04:41:47.813Z,55.01
2018-06-30T04:42:47.912Z,54.82
2018-06-30T04:43:47.827Z,54.72
2018-06-30T04:44:47.849Z,54.82
2018-06-30T04:45:47.851Z,54.82
2018-06-30T04:46:47.865Z,55.49
2018-06-30T04:47:48.034Z,55.40
2018-06-30T04:48:47.896Z,55.40
2018-06-30T04:49:47.926Z,55.68
2018-06-30T04:50:47.913Z,55.68
2018-06-30T04:51:47.933Z,55.58
2018-06-30T04:52:48.048Z,55.68
2018-06-30T04:53:47.950Z,55.58
2018-06-30T04:54:47.966Z,55.49
2018-06-30T04:55:48.003Z,55.49
2018-06-30T04:56:48.020Z,55.78
2018-06-30T04:57:48.153Z,55.87
2018-06-30T04:58:48.015Z,56.04
2018-06-30T04:59:48.043Z,56.42
2018-06-30T05:00:48.045Z,56.61
2018-06-30T05:01:48.056Z,56.61
2018-06-30T05:02:48.242Z,56.71
2018-06-30T05:03:48.093Z,56.81
2018-06-30T05:04:48.093Z,56.99
2018-06-30T05:05:48.136Z,57.28
2018-06-30T05:06:48.124Z,57.38
2018-06-30T05:07:48.313Z,57.57
2018-06-30T05:08:48.145Z,57.38
2018-06-30T05:09:48.161Z,57.38
2018-06-30T05:10:48.194Z,57.28
2018-06-30T05:11:48.184Z,57.48
2018-06-30T05:12:48.391Z,57.48
2018-06-30T05:13:48.209Z,57.19
2018-06-30T05:14:48.225Z,57.28
2018-06-30T05:15:48.230Z,57.19
2018-06-30T05:16:48.267Z,57.19
2018-06-30T05:17:48.382Z,57.28
2018-06-30T05:18:48.265Z,57.19
2018-06-30T05:19:48.287Z,57.19
2018-06-30T05:20:48.293Z,57.38
2018-06-30T05:21:48.333Z,57.19
2018-06-30T05:22:48.495Z,57.28
2018-06-30T05:23:48.333Z,56.81
2018-06-30T05:24:48.370Z,56.52
2018-06-30T05:25:48.420Z,56.71
2018-06-30T05:26:48.395Z,56.90
2018-06-30T05:27:48.482Z,56.23
2018-06-30T05:28:48.389Z,56.32
2018-06-30T05:29:48.437Z,55.56
2018-06-30T05:30:48.420Z,55.65
2018-06-30T05:31:48.458Z,55.75
2018-06-30T05:32:48.609Z,55.75
2018-06-30T05:33:48.482Z,55.56
2018-06-30T05:34:48.480Z,55.75
2018-06-30T05:35:48.506Z,55.85
2018-06-30T05:36:48.493Z,55.65
2018-06-30T05:37:48.504Z,55.36
2018-06-30T05:38:48.643Z,55.85
2018-06-30T05:39:48.533Z,55.27
2018-06-30T05:40:48.568Z,55.08
2018-06-30T05:41:48.558Z,55.08
2018-06-30T05:42:48.567Z,55.56
2018-06-30T05:43:48.583Z,55.18
2018-06-30T05:44:48.739Z,54.79
2018-06-30T05:45:48.619Z,54.79
2018-06-30T05:46:48.624Z,54.70
2018-06-30T05:47:48.657Z,54.89
2018-06-30T05:48:48.670Z,54.79
2018-06-30T05:49:48.758Z,54.79
2018-06-30T05:50:48.701Z,54.99
2018-06-30T05:51:48.701Z,54.89
2018-06-30T05:52:48.718Z,54.89
2018-06-30T05:53:48.713Z,55.18
2018-06-30T05:54:48.872Z,55.46
2018-06-30T05:55:48.737Z,54.99
2018-06-30T05:56:48.769Z,55.27
2018-06-30T05:57:48.763Z,55.18
2018-06-30T05:58:48.771Z,55.36
2018-06-30T05:59:48.913Z,55.56
2018-06-30T06:00:48.856Z,55.36
2018-06-30T06:01:48.832Z,55.56
2018-06-30T06:02:48.818Z,55.65
2018-06-30T06:03:48.836Z,55.65
2018-06-30T06:04:49.030Z,55.85
2018-06-30T06:05:48.859Z,55.46
2018-06-30T06:06:48.873Z,56.23
2018-06-30T06:07:48.905Z,56.32
2018-06-30T06:08:48.923Z,56.42
2018-06-30T06:09:49.040Z,56.52
2018-06-30T06:10:48.934Z,56.52
2018-06-30T06:11:48.930Z,56.99
2018-06-30T06:12:48.976Z,56.99
2018-06-30T06:13:48.955Z,56.81
2018-06-30T06:14:49.137Z,56.61
2018-06-30T06:15:49.008Z,56.71
2018-06-30T06:16:49.009Z,56.71
2018-06-30T06:17:49.008Z,56.90
2018-06-30T06:18:49.016Z,57.19
2018-06-30T06:19:49.141Z,57.48
2018-06-30T06:20:49.071Z,58.15
2018-06-30T06:21:49.054Z,57.95
2018-06-30T06:22:49.069Z,58.15
2018-06-30T06:23:49.087Z,57.95
2018-06-30T06:24:49.255Z,58.15
2018-06-30T06:25:49.151Z,57.95
2018-06-30T06:26:49.120Z,58.81
2018-06-30T06:27:49.159Z,58.81
2018-06-30T06:28:49.140Z,58.24
2018-06-30T06:29:49.303Z,58.53
2018-06-30T06:30:49.185Z,58.15
2018-06-30T06:31:49.185Z,57.92
2018-06-30T06:32:49.228Z,58.24
2018-06-30T06:33:49.230Z,58.40
2018-06-30T06:34:49.322Z,58.91
2018-06-30T06:35:49.253Z,59.01
2018-06-30T06:36:49.252Z,59.36
2018-06-30T06:37:49.255Z,59.27
2018-06-30T06:38:49.298Z,59.27
2018-06-30T06:39:49.426Z,59.27
2018-06-30T06:40:49.289Z,58.98
2018-06-30T06:41:49.306Z,59.65
2018-06-30T06:42:49.341Z,59.94
2018-06-30T06:43:49.327Z,59.55
2018-06-30T06:44:49.521Z,59.55
2018-06-30T06:45:49.379Z,59.45
2018-06-30T06:46:49.364Z,59.94
2018-06-30T06:47:49.377Z,59.65
2018-06-30T06:48:49.415Z,59.75
2018-06-30T06:49:49.501Z,60.22
2018-06-30T06:50:49.449Z,60.32
2018-06-30T06:51:49.431Z,60.32
2018-06-30T06:52:49.437Z,60.61
2018-06-30T06:53:49.447Z,60.32
2018-06-30T06:54:49.616Z,60.41
2018-06-30T06:55:49.477Z,60.41
2018-06-30T06:56:49.490Z,60.41
2018-06-30T06:57:49.511Z,60.51
2018-06-30T06:58:49.512Z,60.70
2018-06-30T06:59:49.518Z,61.28
2018-06-30T07:00:49.636Z,61.08
2018-06-30T07:01:49.545Z,61.08
2018-06-30T07:02:49.557Z,60.99
2018-06-30T07:03:49.571Z,61.57
2018-06-30T07:04:49.583Z,60.99
2018-06-30T07:05:49.747Z,60.99
2018-06-30T07:06:49.624Z,61.28
2018-06-30T07:07:49.633Z,60.99
2018-06-30T07:08:49.639Z,61.28
2018-06-30T07:09:49.649Z,61.28
2018-06-30T07:10:49.801Z,61.57
2018-06-30T07:11:49.667Z,61.66
2018-06-30T07:12:49.712Z,61.57
2018-06-30T07:13:49.692Z,61.76
2018-06-30T07:14:49.712Z,61.47
2018-06-30T07:15:49.827Z,61.85
2018-06-30T07:16:49.731Z,61.57
2018-06-30T07:17:49.738Z,61.66
2018-06-30T07:18:49.768Z,61.57
2018-06-30T07:19:49.764Z,61.66
2018-06-30T07:20:49.954Z,61.66
2018-06-30T07:21:49.786Z,61.57
2018-06-30T07:22:49.827Z,62.14
2018-06-30T07:23:49.841Z,62.43
2018-06-30T07:24:49.820Z,62.33
2018-06-30T07:25:50.002Z,61.66
2018-06-30T07:26:49.847Z,61.76
2018-06-30T07:27:49.890Z,61.66
2018-06-30T07:28:49.877Z,61.66
2018-06-30T07:29:49.913Z,61.85
2018-06-30T07:30:50.018Z,61.47
2018-06-30T07:31:49.909Z,61.57
2018-06-30T07:32:49.952Z,61.63
2018-06-30T07:33:49.938Z,61.44
2018-06-30T07:34:49.964Z,61.63
2018-06-30T07:35:50.121Z,61.63
2018-06-30T07:36:49.990Z,61.54
2018-06-30T07:37:49.985Z,62.20
2018-06-30T07:38:50.001Z,62.20
2018-06-30T07:39:50.009Z,62.30
2018-06-30T07:40:50.342Z,62.49
2018-06-30T07:41:50.235Z,62.97
2018-06-30T07:42:50.227Z,62.59
2018-06-30T07:43:50.197Z,62.68
2018-06-30T07:44:50.179Z,62.68
2018-06-30T07:45:50.257Z,62.77
2018-06-30T07:46:50.118Z,62.49
2018-06-30T07:47:50.114Z,62.68
2018-06-30T07:48:50.122Z,62.59
2018-06-30T07:49:50.128Z,62.77
2018-06-30T07:50:50.245Z,63.06
2018-06-30T07:51:50.175Z,63.26
2018-06-30T07:52:50.166Z,63.26
2018-06-30T07:53:50.203Z,63.45
2018-06-30T07:54:50.190Z,63.45
2018-06-30T07:55:50.363Z,63.35
2018-06-30T07:56:50.214Z,62.87
2018-06-30T07:57:50.224Z,63.45
2018-06-30T07:58:50.236Z,63.26
2018-06-30T07:59:50.273Z,63.16
2018-06-30T08:00:50.370Z,63.06
2018-06-30T08:01:50.302Z,63.10
2018-06-30T08:02:50.310Z,63.45
2018-06-30T08:03:50.295Z,63.06
2018-06-30T08:04:50.305Z,63.45
2018-06-30T08:05:50.430Z,63.73
2018-06-30T08:06:50.358Z,63.54
2018-06-30T08:07:50.341Z,63.64
2018-06-30T08:08:50.383Z,63.45
2018-06-30T08:09:50.394Z,63.45
2018-06-30T08:10:50.532Z,63.64
2018-06-30T08:11:50.422Z,63.54
2018-06-30T08:12:50.406Z,64.31
2018-06-30T08:13:50.446Z,64.22
2018-06-30T08:14:50.449Z,64.31
2018-06-30T08:15:50.465Z,64.22
2018-06-30T08:16:50.596Z,63.93
2018-06-30T08:17:50.476Z,64.02
2018-06-30T08:18:50.480Z,64.50
2018-06-30T08:19:50.483Z,64.31
2018-06-30T08:20:50.501Z,64.22
2018-06-30T08:21:50.524Z,64.12
2018-06-30T08:22:50.648Z,64.31
2018-06-30T08:23:50.537Z,64.12
2018-06-30T08:24:50.552Z,64.12
2018-06-30T08:25:50.559Z,63.64
2018-06-30T08:26:50.598Z,64.31
2018-06-30T08:27:50.684Z,64.40
2018-06-30T08:28:50.604Z,64.02
2018-06-30T08:29:50.632Z,64.12
2018-06-30T08:30:50.640Z,64.22
2018-06-30T08:31:50.628Z,64.59
2018-06-30T08:32:50.768Z,64.40
2018-06-30T08:33:50.655Z,64.22
2018-06-30T08:34:50.688Z,64.98
2018-06-30T08:35:50.675Z,64.79
2018-06-30T08:36:50.714Z,65.08
2018-06-30T08:37:50.877Z,64.69
2018-06-30T08:38:50.740Z,64.98
2018-06-30T08:39:50.752Z,64.98
2018-06-30T08:40:50.748Z,65.36
2018-06-30T08:41:50.749Z,64.98
2018-06-30T08:42:50.867Z,64.98
2018-06-30T08:43:50.774Z,65.65
2018-06-30T08:44:50.813Z,65.45
2018-06-30T08:45:50.801Z,65.84
2018-06-30T08:46:50.816Z,65.74
2018-06-30T08:47:50.968Z,66.03
2018-06-30T08:48:50.856Z,66.41
2018-06-30T08:49:50.865Z,65.65
2018-06-30T08:50:50.867Z,66.03
2018-06-30T08:51:50.882Z,66.32
2018-06-30T08:52:51.010Z,66.03
2018-06-30T08:53:50.889Z,66.03
2018-06-30T08:54:50.900Z,67.08
2018-06-30T08:55:50.937Z,66.99
2018-06-30T08:56:50.965Z,67.08
2018-06-30T08:57:51.043Z,66.99
2018-06-30T08:58:50.956Z,67.05
2018-06-30T08:59:50.971Z,67.18
2018-06-30T09:00:50.971Z,67.63
2018-06-30T09:01:51.011Z,67.47
2018-06-30T09:02:51.120Z,68.04
2018-06-30T09:03:51.015Z,68.01
2018-06-30T09:04:51.046Z,68.39
2018-06-30T09:05:51.043Z,68.77
2018-06-30T09:06:51.046Z,69.25
2018-06-30T09:07:51.154Z,69.25
2018-06-30T09:08:51.068Z,69.82
2018-06-30T09:09:51.089Z,69.35
2018-06-30T09:10:51.122Z,69.44
2018-06-30T09:11:51.181Z,69.54
2018-06-30T09:12:51.209Z,69.82
2018-06-30T09:13:51.131Z,69.54
2018-06-30T09:14:51.132Z,69.54
2018-06-30T09:15:51.166Z,70.01
2018-06-30T09:16:51.159Z,69.64
2018-06-30T09:17:51.284Z,70.59
2018-06-30T09:18:51.185Z,70.21
2018-06-30T09:19:51.198Z,70.59
2018-06-30T09:20:51.203Z,70.68
2018-06-30T09:21:51.243Z,69.82
2018-06-30T09:22:51.405Z,69.82
2018-06-30T09:23:51.240Z,69.73
2018-06-30T09:24:51.278Z,69.82
2018-06-30T09:25:51.297Z,69.73
2018-06-30T09:26:51.305Z,69.54
2018-06-30T09:27:51.390Z,69.44
2018-06-30T09:28:51.331Z,69.54
2018-06-30T09:29:51.310Z,69.64
2018-06-30T09:30:51.352Z,69.44
2018-06-30T09:31:51.365Z,69.35
2018-06-30T09:32:51.481Z,70.01
2018-06-30T09:33:51.384Z,69.73
2018-06-30T09:34:51.370Z,69.44
2018-06-30T09:35:51.386Z,68.96
2018-06-30T09:36:51.401Z,69.15
2018-06-30T09:37:51.513Z,68.96
2018-06-30T09:38:51.445Z,68.68
2018-06-30T09:39:51.433Z,69.06
2018-06-30T09:40:51.445Z,68.96
2018-06-30T09:41:51.468Z,69.06
2018-06-30T09:42:51.499Z,68.87
2018-06-30T09:43:51.627Z,69.35
2018-06-30T09:44:51.498Z,69.73
2018-06-30T09:45:51.499Z,69.64
2018-06-30T09:46:51.543Z,69.54
2018-06-30T09:47:51.526Z,69.64
2018-06-30T09:48:51.635Z,68.96
2018-06-30T09:49:51.552Z,69.06
2018-06-30T09:50:51.579Z,69.73
2018-06-30T09:51:51.602Z,69.73
2018-06-30T09:52:51.584Z,69.44
2018-06-30T09:53:51.691Z,69.54
2018-06-30T09:54:51.606Z,69.35
2018-06-30T09:55:51.618Z,68.87
2018-06-30T09:56:51.654Z,69.06
2018-06-30T09:57:51.646Z,69.25
2018-06-30T09:58:51.834Z,68.96
2018-06-30T09:59:51.691Z,68.68
2018-06-30T10:00:51.686Z,68.96
2018-06-30T10:01:51.698Z,68.90
2018-06-30T10:02:51.698Z,68.90
2018-06-30T10:03:51.866Z,68.68
2018-06-30T10:04:51.724Z,68.20
2018-06-30T10:05:51.739Z,68.80
2018-06-30T10:06:51.808Z,68.42
2018-06-30T10:07:51.758Z,68.33
2018-06-30T10:08:51.893Z,68.33
2018-06-30T10:09:51.806Z,67.94
2018-06-30T10:10:51.803Z,67.66
2018-06-30T10:11:51.803Z,67.94
2018-06-30T10:12:51.844Z,66.89
2018-06-30T10:13:51.926Z,67.47
2018-06-30T10:14:51.847Z,67.08
2018-06-30T10:15:51.851Z,66.89
2018-06-30T10:16:51.867Z,67.08
2018-06-30T10:17:51.943Z,67.18
2018-06-30T10:18:51.992Z,66.80
2018-06-30T10:19:51.932Z,66.89
2018-06-30T10:20:51.929Z,66.41
2018-06-30T10:21:51.932Z,66.03
2018-06-30T10:22:51.936Z,65.65
2018-06-30T10:23:52.049Z,66.03
2018-06-30T10:24:51.967Z,66.03
2018-06-30T10:25:51.971Z,65.26
2018-06-30T10:26:52.011Z,64.98
2018-06-30T10:27:51.998Z,65.01
2018-06-30T10:28:52.163Z,65.39
2018-06-30T10:29:52.022Z,65.20
2018-06-30T10:30:52.047Z,65.11
2018-06-30T10:31:52.047Z,64.53
2018-06-30T10:32:52.074Z,64.43
2018-06-30T10:33:52.170Z,64.53
2018-06-30T10:34:52.110Z,64.05
2018-06-30T10:35:52.100Z,64.25
2018-06-30T10:36:52.106Z,64.15
2018-06-30T10:37:52.123Z,64.05
2018-06-30T10:38:52.229Z,63.67
2018-06-30T10:39:52.141Z,63.39
2018-06-30T10:40:52.187Z,63.48
2018-06-30T10:41:52.199Z,62.90
2018-06-30T10:42:52.176Z,62.62
2018-06-30T10:43:52.291Z,62.52
2018-06-30T10:44:52.203Z,62.71
2018-06-30T10:45:52.248Z,62.33
2018-06-30T10:46:52.242Z,62.23
2018-06-30T10:47:52.267Z,62.52
2018-06-30T10:48:52.366Z,61.57
2018-06-30T10:49:52.265Z,61.76
2018-06-30T10:50:52.304Z,61.57
2018-06-30T10:51:52.293Z,61.66
2018-06-30T10:52:52.329Z,61.94
2018-06-30T10:53:52.492Z,61.28
2018-06-30T10:54:52.332Z,61.02
2018-06-30T10:55:52.342Z,61.11
2018-06-30T10:56:52.357Z,61.31
2018-06-30T10:57:52.391Z,60.93
2018-06-30T10:58:52.479Z,60.54
2018-06-30T10:59:52.421Z,59.97
2018-06-30T11:00:52.434Z,59.97
2018-06-30T11:01:52.419Z,59.97
2018-06-30T11:02:52.434Z,60.06
2018-06-30T11:03:52.525Z,60.25
2018-06-30T11:04:52.610Z,59.87
2018-06-30T11:05:52.480Z,59.68
2018-06-30T11:06:52.509Z,59.77
2018-06-30T11:07:52.496Z,59.39
2018-06-30T11:08:52.511Z,58.75
2018-06-30T11:09:52.647Z,58.84
2018-06-30T11:10:52.600Z,58.56
2018-06-30T11:11:52.559Z,58.08
2018-06-30T11:12:52.591Z,57.31
2018-06-30T11:13:52.583Z,56.93
2018-06-30T11:14:52.736Z,56.64
2018-06-30T11:15:52.628Z,55.52
2018-06-30T11:16:52.645Z,55.04
2018-06-30T11:17:52.645Z,54.85
2018-06-30T11:18:52.667Z,54.66
2018-06-30T11:19:52.784Z,54.08
2018-06-30T11:20:52.678Z,54.08
2018-06-30T11:21:52.692Z,54.17
2018-06-30T11:22:52.691Z,54.08
2018-06-30T11:23:52.734Z,53.34
2018-06-30T11:24:52.902Z,53.05
2018-06-30T11:25:52.739Z,52.57
2018-06-30T11:26:52.778Z,52.57
2018-06-30T11:27:52.767Z,52.19
2018-06-30T11:28:52.784Z,51.90
2018-06-30T11:29:52.944Z,51.81
2018-06-30T11:30:52.835Z,51.71
2018-06-30T11:31:52.822Z,52.28
2018-06-30T11:32:52.861Z,51.51
2018-06-30T11:33:52.852Z,51.04
2018-06-30T11:34:53.014Z,51.14
2018-06-30T11:35:52.896Z,50.84
2018-06-30T11:36:52.893Z,51.23
2018-06-30T11:37:52.905Z,51.23
2018-06-30T11:38:52.951Z,50.27
2018-06-30T11:39:53.096Z,50.29
2018-06-30T11:40:53.213Z,49.91
2018-06-30T11:41:52.964Z,49.15
2018-06-30T11:42:53.008Z,48.47
2018-06-30T11:43:52.993Z,48.38
2018-06-30T11:44:53.163Z,47.71
2018-06-30T11:45:53.025Z,47.80
2018-06-30T11:46:53.040Z,47.80
2018-06-30T11:47:53.050Z,47.25
2018-06-30T11:48:53.074Z,47.25
2018-06-30T11:49:53.236Z,46.77
2018-06-30T11:50:53.128Z,47.25
2018-06-30T11:51:53.141Z,47.15
2018-06-30T11:52:53.159Z,47.25
2018-06-30T11:53:53.150Z,46.67
2018-06-30T11:54:53.333Z,47.44
2018-06-30T11:55:53.176Z,47.25
2018-06-30T11:56:53.191Z,47.15
2018-06-30T11:57:53.205Z,47.15
2018-06-30T11:58:53.249Z,46.38
2018-06-30T11:59:53.392Z,46.21
2018-06-30T12:00:53.251Z,45.71
2018-06-30T12:01:53.293Z,46.02
2018-06-30T12:02:53.309Z,45.73
2018-06-30T12:03:53.322Z,45.64
2018-06-30T12:04:53.410Z,45.15
2018-06-30T12:05:53.327Z,44.58
2018-06-30T12:06:53.373Z,44.38
2018-06-30T12:07:53.388Z,44.31
2018-06-30T12:08:53.374Z,44.31
2018-06-30T12:09:53.570Z,43.45
2018-06-30T12:10:53.411Z,44.12
2018-06-30T12:11:53.428Z,43.54
2018-06-30T12:12:53.442Z,43.54
2018-06-30T12:13:53.483Z,43.64
2018-06-30T12:14:53.480Z,43.54
2018-06-30T12:15:53.663Z,43.74
2018-06-30T12:16:53.510Z,42.80
2018-06-30T12:17:53.548Z,42.70
2018-06-30T12:18:53.572Z,41.64
2018-06-30T12:19:53.561Z,41.26
2018-06-30T12:20:53.672Z,40.70
2018-06-30T12:21:53.633Z,40.12
2018-06-30T12:22:53.712Z,39.64
2018-06-30T12:23:53.628Z,40.05
2018-06-30T12:24:53.669Z,39.47
2018-06-30T12:25:53.771Z,39.76
2018-06-30T12:26:53.679Z,39.09
2018-06-30T12:27:53.696Z,38.89
2018-06-30T12:28:53.738Z,38.14
2018-06-30T12:29:53.766Z,37.76
2018-06-30T12:30:53.882Z,36.79
2018-06-30T12:31:53.835Z,37.10
2018-06-30T12:32:53.800Z,35.85
2018-06-30T12:33:53.822Z,35.85
2018-06-30T12:34:53.829Z,36.33
2018-06-30T12:35:54.011Z,36.33
2018-06-30T12:36:53.871Z,36.33
2018-06-30T12:37:53.918Z,35.85
2018-06-30T12:38:53.930Z,35.27
2018-06-30T12:39:53.929Z,34.78
2018-06-30T12:40:54.057Z,34.42
2018-06-30T12:41:53.961Z,34.70
2018-06-30T12:42:53.987Z,35.58
2018-06-30T12:43:54.002Z,34.61
2018-06-30T12:44:54.044Z,34.80
2018-06-30T12:45:54.190Z,33.55
2018-06-30T12:46:54.068Z,34.61
2018-06-30T12:47:54.105Z,34.80
2018-06-30T12:48:54.131Z,34.80
2018-06-30T12:49:54.125Z,34.22
2018-06-30T12:50:54.273Z,33.84
2018-06-30T12:51:54.188Z,33.66
2018-06-30T12:52:54.211Z,33.76